Time;durP1;ratioP1;P1;durP2;ratioP2;P2;SDS_P1;SDS_P2;PMS_P1;PMS_P2;Temp;Humidity;BMP_temperature;BMP_pressure;BME280_temperature;BME280_humidity;BME280_pressure;Samples;Min_cycle;Max_cycle;Signal;HPM_P1;HPM_P2
2022/03/05 00:01:14;;;;;;;39.33;20.10;;;1.80;1.00;2.30;100980.00;;;;5017919;28;20457;-80
2022/03/05 00:03:43;;;;;;;39.27;21.77;;;1.80;1.00;2.20;100985.00;;;;5007044;28;20477;-80
2022/03/05 00:06:11;;;;;;;39.47;21.90;;;1.70;1.00;2.20;100985.00;;;;5001923;28;20546;-78
2022/03/05 00:08:41;;;;;;;38.80;20.53;;;1.70;1.00;2.20;100978.00;;;;4999267;28;20521;-80
2022/03/05 00:11:10;;;;;;;38.00;20.90;;;1.70;1.00;2.20;100985.00;;;;5003448;28;20466;-80
2022/03/05 00:13:38;;;;;;;40.37;21.40;;;1.60;1.00;2.10;100966.00;;;;4999920;28;20487;-81
2022/03/05 00:16:06;;;;;;;42.10;21.90;;;1.60;1.00;2.10;100982.00;;;;5001833;28;21293;-80
2022/03/05 00:18:35;;;;;;;38.20;22.40;;;1.60;1.00;2.20;100971.00;;;;5000671;28;20473;-81
2022/03/05 00:21:04;;;;;;;40.17;21.70;;;1.60;1.00;2.20;100971.00;;;;5022470;28;20454;-81
2022/03/05 00:23:32;;;;;;;41.77;24.13;;;1.60;1.00;2.30;100972.00;;;;5006508;28;20497;-78
2022/03/05 00:26:02;;;;;;;39.97;22.80;;;1.60;1.00;2.30;100975.00;;;;5003073;28;20466;-80
2022/03/05 00:28:30;;;;;;;37.87;22.50;;;1.70;1.00;2.20;100975.00;;;;4999410;28;20465;-80
2022/03/05 00:31:00;;;;;;;42.60;23.93;;;1.70;1.00;2.20;100985.00;;;;4998066;28;20467;-79
2022/03/05 00:33:28;;;;;;;38.87;23.03;;;1.60;1.00;2.10;100978.00;;;;5013556;28;20458;-79
2022/03/05 00:35:57;;;;;;;37.23;22.60;;;1.90;1.00;2.20;100970.00;;;;4998185;28;20485;-79
2022/03/05 00:38:25;;;;;;;36.27;21.90;;;1.60;1.00;2.30;100970.00;;;;5000357;28;20450;-77
2022/03/05 00:40:54;;;;;;;43.63;22.90;;;1.70;1.00;2.20;100988.00;;;;5014769;28;20495;-78
2022/03/05 00:43:23;;;;;;;44.47;23.70;;;1.70;1.00;2.10;100973.00;;;;4997344;28;20473;-78
2022/03/05 00:45:52;;;;;;;42.20;23.17;;;1.50;1.00;2.10;100963.00;;;;5002160;28;20470;-79
2022/03/05 00:48:20;;;;;;;46.03;24.47;;;1.50;1.00;2.00;100974.00;;;;5020938;28;20878;-81
2022/03/05 00:50:49;;;;;;;44.93;22.70;;;1.50;1.00;1.90;100987.00;;;;5013844;28;20459;-81
2022/03/05 00:53:18;;;;;;;42.10;24.27;;;1.40;1.00;1.90;100976.00;;;;5010934;28;20470;-79
2022/03/05 00:55:46;;;;;;;37.93;21.60;;;1.40;1.00;1.80;100969.00;;;;5017487;28;20466;-80
2022/03/05 00:58:15;;;;;;;39.17;20.70;;;1.30;1.00;1.80;100962.00;;;;5038466;28;20524;-79
2022/03/05 01:00:44;;;;;;;39.13;22.20;;;1.30;1.00;1.80;100974.00;;;;5018112;28;20458;-80
2022/03/05 01:03:13;;;;;;;43.40;23.87;;;1.30;1.00;1.80;100997.00;;;;5003114;28;21044;-80
2022/03/05 01:05:42;;;;;;;38.43;21.73;;;1.20;1.00;1.70;100978.00;;;;5004677;28;21080;-80
2022/03/05 01:08:12;;;;;;;45.30;23.40;;;1.20;1.00;1.80;100972.00;;;;5013939;28;20462;-81
2022/03/05 01:10:40;;;;;;;42.63;21.93;;;1.20;1.00;1.90;100956.00;;;;5016972;28;20486;-81
2022/03/05 01:13:08;;;;;;;45.73;24.47;;;1.30;1.00;1.90;100960.00;;;;5021335;28;20473;-81
2022/03/05 01:15:36;;;;;;;46.23;24.93;;;1.30;1.00;1.90;100959.00;;;;5004468;28;20458;-78
2022/03/05 01:18:08;;;;;;;37.27;21.70;;;1.30;1.00;1.90;100961.00;;;;5004701;28;20447;-80
2022/03/05 01:20:36;;;;;;;41.23;24.33;;;1.30;1.00;1.80;100925.00;;;;5022629;28;20463;-80
2022/03/05 01:23:05;;;;;;;41.93;24.43;;;1.30;1.00;1.90;100956.00;;;;5019538;28;20506;-80
2022/03/05 01:25:33;;;;;;;45.50;24.33;;;1.30;1.00;2.00;100967.00;;;;5035006;28;20564;-78
2022/03/05 01:28:02;;;;;;;39.40;22.80;;;1.30;1.00;2.10;100959.00;;;;5011715;28;20454;-82
2022/03/05 01:30:30;;;;;;;44.50;24.40;;;1.40;1.00;2.10;100955.00;;;;5018706;28;20819;-79
2022/03/05 01:32:58;;;;;;;37.67;20.80;;;1.70;1.00;1.90;100970.00;;;;5018394;28;20484;-78
2022/03/05 01:35:28;;;;;;;39.47;20.67;;;1.30;1.00;2.00;100956.00;;;;5001275;28;20475;-78
2022/03/05 01:37:57;;;;;;;43.63;23.87;;;1.20;1.00;1.90;100954.00;;;;5002812;28;20454;-80
2022/03/05 01:40:25;;;;;;;40.90;19.73;;;1.30;1.00;1.90;100942.00;;;;4999243;28;20447;-78
2022/03/05 01:42:55;;;;;;;42.73;20.80;;;1.30;1.00;1.90;100967.00;;;;4990584;28;20467;-81
2022/03/05 01:45:24;;;;;;;35.57;20.40;;;1.30;1.00;1.80;100951.00;;;;5015704;28;20502;-79
2022/03/05 01:47:52;;;;;;;38.10;23.00;;;1.20;1.00;1.80;100948.00;;;;4996136;28;20455;-79
2022/03/05 01:50:20;;;;;;;38.83;20.57;;;1.20;1.00;1.90;100951.00;;;;4993918;28;20501;-79
2022/03/05 01:52:50;;;;;;;38.37;20.40;;;1.40;1.00;1.80;100961.00;;;;4996485;28;21046;-78
2022/03/05 01:55:19;;;;;;;33.80;20.60;;;1.20;1.00;1.70;100967.00;;;;4989974;28;20482;-79
2022/03/05 01:57:48;;;;;;;37.20;20.60;;;1.20;1.00;1.60;100943.00;;;;5015184;28;20449;-79
2022/03/05 02:00:17;;;;;;;39.70;20.13;;;1.10;1.00;1.50;100948.00;;;;5003221;28;20450;-78
2022/03/05 02:02:47;;;;;;;42.50;21.40;;;1.00;1.00;1.50;100949.00;;;;4998441;28;20458;-77
2022/03/05 02:05:16;;;;;;;42.57;21.90;;;1.00;1.00;1.50;100960.00;;;;5010549;28;20477;-79
2022/03/05 02:07:45;;;;;;;38.37;21.03;;;0.90;1.00;1.40;100924.00;;;;5014587;28;20517;-80
2022/03/05 02:10:15;;;;;;;38.30;22.10;;;0.90;1.00;1.40;100947.00;;;;4997914;28;20454;-80
2022/03/05 02:12:44;;;;;;;42.07;23.50;;;0.90;1.00;1.40;100933.00;;;;5012816;28;20477;-79
2022/03/05 02:15:12;;;;;;;38.20;22.67;;;0.90;1.00;1.40;100956.00;;;;5010527;28;20488;-78
2022/03/05 02:17:42;;;;;;;40.90;21.40;;;1.10;1.00;1.40;100947.00;;;;5012673;28;20465;-81
2022/03/05 02:20:11;;;;;;;43.30;23.67;;;0.90;1.00;1.40;100948.00;;;;5032699;28;20459;-79
2022/03/05 02:22:41;;;;;;;43.03;23.90;;;0.90;1.00;1.50;100960.00;;;;5025522;28;20467;-79
2022/03/05 02:25:10;;;;;;;45.43;25.10;;;0.90;1.00;1.50;100945.00;;;;5018879;28;20475;-78
2022/03/05 02:27:38;;;;;;;42.70;23.27;;;0.90;1.00;1.50;100951.00;;;;4996010;28;21113;-77
2022/03/05 02:30:08;;;;;;;43.03;22.87;;;0.90;1.00;1.60;100960.00;;;;5000072;28;20454;-78
2022/03/05 02:32:37;;;;;;;45.00;24.77;;;0.90;1.00;1.30;100967.00;;;;4991131;28;20469;-79
2022/03/05 02:35:06;;;;;;;45.33;25.30;;;0.90;1.00;1.50;100960.00;;;;5002268;28;20509;-79
2022/03/05 02:37:35;;;;;;;46.63;24.73;;;0.90;1.00;1.40;100955.00;;;;4998591;28;20465;-79
2022/03/05 02:40:06;;;;;;;48.20;24.27;;;0.90;1.00;1.50;100960.00;;;;5016804;28;20465;-79
2022/03/05 02:42:35;;;;;;;46.80;26.07;;;0.90;1.00;1.40;100963.00;;;;5001093;28;21467;-80
2022/03/05 02:45:04;;;;;;;45.10;23.57;;;0.90;1.00;1.40;100922.00;;;;4999950;28;20560;-79
2022/03/05 02:47:33;;;;;;;43.87;22.53;;;0.80;1.00;1.40;100957.00;;;;4997995;28;20500;-79
2022/03/05 02:50:01;;;;;;;39.07;22.17;;;0.80;1.00;1.30;100956.00;;;;4993994;28;21045;-79
2022/03/05 02:52:29;;;;;;;41.50;22.80;;;0.70;1.00;1.30;100938.00;;;;4999067;28;21107;-79
2022/03/05 02:54:58;;;;;;;40.97;20.97;;;0.70;1.00;1.20;100955.00;;;;5004453;28;20557;-79
2022/03/05 02:57:27;;;;;;;44.03;23.27;;;0.70;1.00;1.30;100949.00;;;;5002916;28;20495;-79
2022/03/05 02:59:56;;;;;;;38.50;19.77;;;0.70;1.00;1.20;100964.00;;;;5000709;28;20454;-79
2022/03/05 03:02:24;;;;;;;38.70;21.20;;;0.70;1.00;1.30;100952.00;;;;4998618;28;20560;-81
2022/03/05 03:04:53;;;;;;;41.20;21.33;;;0.70;1.00;1.30;100936.00;;;;5003248;28;20477;-79
2022/03/05 03:07:21;;;;;;;40.17;20.80;;;0.70;1.00;1.40;100936.00;;;;5010207;28;20972;-78
2022/03/05 03:09:49;;;;;;;38.63;21.83;;;0.80;1.00;1.40;100957.00;;;;4995827;28;20458;-80
2022/03/05 03:12:18;;;;;;;39.77;20.80;;;0.80;1.00;1.50;100945.00;;;;4999023;28;20462;-77
2022/03/05 03:14:49;;;;;;;41.30;21.90;;;0.80;1.00;1.40;100945.00;;;;5001044;28;20487;-79
2022/03/05 03:17:17;;;;;;;39.30;20.73;;;0.80;1.00;52.70;157178.00;;;;4999994;28;20465;-80
2022/03/05 03:19:46;;;;;;;38.67;21.20;;;0.70;1.00;1.40;100945.00;;;;5014150;28;20465;-78
2022/03/05 03:22:14;;;;;;;42.23;21.97;;;0.70;1.00;1.30;100919.00;;;;5008561;28;20488;-77
2022/03/05 03:24:43;;;;;;;42.20;22.43;;;0.80;1.00;1.30;100956.00;;;;5008871;28;20497;-78
2022/03/05 03:27:11;;;;;;;39.60;20.20;;;0.70;1.00;1.30;100962.00;;;;5018073;28;20447;-77
2022/03/05 03:29:40;;;;;;;38.10;20.57;;;0.70;1.00;1.20;100950.00;;;;4999128;28;20458;-76
2022/03/05 03:32:09;;;;;;;42.50;20.70;;;0.60;1.00;1.40;66558.00;;;;5022295;28;20454;-76
2022/03/05 03:34:38;;;;;;;42.33;22.07;;;0.70;1.00;1.30;100943.00;;;;5037840;28;20489;-76
2022/03/05 03:37:07;;;;;;;37.87;20.37;;;0.80;1.00;1.20;100966.00;;;;5017966;28;20438;-78
2022/03/05 03:39:35;;;;;;;43.63;21.80;;;0.60;1.00;1.30;100958.00;;;;5013744;28;20464;-77
2022/03/05 03:42:04;;;;;;;43.90;21.90;;;1.10;1.00;1.00;100950.00;;;;5018227;28;20478;-79
2022/03/05 03:44:33;;;;;;;39.80;21.83;;;0.60;1.00;1.10;100955.00;;;;5021998;28;20482;-77
2022/03/05 03:47:02;;;;;;;41.83;21.63;;;0.50;1.00;1.00;100946.00;;;;5002164;28;20521;-78
2022/03/05 03:49:32;;;;;;;46.63;23.43;;;0.50;1.00;1.00;100965.00;;;;4996285;28;20468;-79
2022/03/05 03:52:01;;;;;;;39.50;20.93;;;0.40;1.00;1.00;100971.00;;;;4997133;28;20465;-79
2022/03/05 03:54:29;;;;;;;41.03;20.60;;;0.40;1.00;1.00;100971.00;;;;4997870;28;20490;-79
2022/03/05 03:56:57;;;;;;;39.57;21.50;;;0.40;1.00;1.00;100961.00;;;;4999113;28;20443;-78
2022/03/05 03:59:26;;;;;;;44.10;20.90;;;0.50;1.00;1.10;100974.00;;;;5013148;28;20576;-80
2022/03/05 04:01:54;;;;;;;45.03;23.80;;;0.50;1.00;0.90;100968.00;;;;4998694;28;20449;-78
2022/03/05 04:04:23;;;;;;;47.30;24.17;;;0.50;1.00;0.80;100970.00;;;;4998542;28;20480;-80
2022/03/05 04:09:38;;;;;;;41.60;19.80;;;0.30;1.00;0.80;100962.00;;;;4998162;28;20869;-78
2022/03/05 04:12:08;;;;;;;44.13;23.20;;;0.30;1.00;0.90;100952.00;;;;4996951;28;21103;-80
2022/03/05 04:14:38;;;;;;;44.50;22.33;;;0.30;1.00;217.30;157057.00;;;;4997182;28;20486;-81
2022/03/05 04:17:07;;;;;;;43.57;22.30;;;0.40;1.00;1.00;100966.00;;;;4989412;28;20469;-79
2022/03/05 04:19:35;;;;;;;42.60;20.40;;;0.40;1.00;1.10;100982.00;;;;4996105;28;20455;-80
2022/03/05 04:22:05;;;;;;;44.30;23.47;;;0.50;1.00;0.90;100946.00;;;;4997780;28;20458;-80
2022/03/05 04:24:34;;;;;;;42.53;22.10;;;0.40;1.00;1.00;100953.00;;;;4997165;28;20843;-81
2022/03/05 04:27:03;;;;;;;46.37;21.83;;;0.40;1.00;1.10;100959.00;;;;4997656;28;20459;-78
2022/03/05 04:29:32;;;;;;;40.73;21.63;;;0.50;1.00;1.00;100943.00;;;;4997848;28;20458;-78
2022/03/05 04:32:01;;;;;;;36.23;20.20;;;0.50;1.00;1.00;100955.00;;;;4997759;28;20452;-79
2022/03/05 04:34:29;;;;;;;40.70;21.10;;;0.50;1.00;0.90;100957.00;;;;4995111;28;20482;-79
2022/03/05 04:36:57;;;;;;;43.10;22.50;;;0.70;1.00;0.90;100963.00;;;;4988600;28;20450;-79
2022/03/05 04:39:27;;;;;;;41.73;21.90;;;0.40;1.00;1.00;100946.00;;;;5003122;28;20459;-78
2022/03/05 04:41:55;;;;;;;42.10;21.83;;;0.40;1.00;1.10;100956.00;;;;5001455;28;20466;-81
2022/03/05 04:44:24;;;;;;;41.07;21.10;;;0.40;1.00;1.00;100959.00;;;;5011067;28;20498;-80
2022/03/05 04:46:53;;;;;;;38.40;20.43;;;0.40;1.00;1.00;100960.00;;;;5031671;28;21353;-81
2022/03/05 04:49:23;;;;;;;45.50;23.33;;;0.40;1.00;1.00;100961.00;;;;5011607;28;20449;-80
2022/03/05 04:51:52;;;;;;;37.13;21.17;;;0.40;1.00;0.80;100961.00;;;;5007234;28;20454;-78
2022/03/05 04:54:20;;;;;;;43.33;22.57;;;0.40;1.00;0.90;100969.00;;;;5000219;28;20489;-79
2022/03/05 04:56:50;;;;;;;40.70;20.33;;;0.30;1.00;1.00;100972.00;;;;5000445;28;20450;-78
2022/03/05 04:59:18;;;;;;;40.07;21.77;;;0.30;1.00;0.90;100957.00;;;;5000545;28;20447;-78
2022/03/05 05:01:47;;;;;;;49.40;22.13;;;0.30;1.00;0.90;100973.00;;;;4996255;28;20981;-79
2022/03/05 05:04:15;;;;;;;42.10;21.53;;;0.30;1.00;0.90;100975.00;;;;4997969;28;20470;-79
2022/03/05 05:06:44;;;;;;;39.80;21.23;;;0.30;1.00;0.90;100974.00;;;;4994497;28;20459;-79
2022/03/05 05:09:12;;;;;;;43.00;23.13;;;0.30;1.00;0.80;100982.00;;;;4987208;28;20538;-80
2022/03/05 05:11:41;;;;;;;41.70;20.87;;;0.30;1.00;0.70;100988.00;;;;4996781;28;20485;-79
2022/03/05 05:14:11;;;;;;;42.50;21.90;;;0.60;1.00;0.70;100995.00;;;;4994043;28;20482;-79
2022/03/05 05:16:40;;;;;;;39.60;20.80;;;0.20;1.00;0.80;66426.00;;;;4993774;28;20542;-79
2022/03/05 05:19:28;;;;;;;39.63;21.37;;;0.20;1.00;0.80;100995.00;;;;4987222;28;20461;-79
2022/03/05 05:21:59;;;;;;;48.43;22.07;;;0.20;1.00;0.70;100999.00;;;;4992114;28;20470;-79
2022/03/05 05:24:31;;;;;;;45.93;23.07;;;0.10;1.00;0.90;100990.00;;;;4997581;28;20510;-78
2022/03/05 05:27:00;;;;;;;39.93;21.80;;;0.20;1.00;0.80;100990.00;;;;4996195;28;20461;-78
2022/03/05 05:29:30;;;;;;;44.03;22.13;;;0.20;1.00;0.90;66442.00;;;;4995674;28;20793;-76
2022/03/05 05:32:10;;;;;;;43.77;21.60;;;0.20;1.00;0.60;100987.00;;;;4988811;28;20549;-77
2022/03/05 05:34:41;;;;;;;45.93;24.07;;;0.20;1.00;0.60;100992.00;;;;5011130;28;20490;-78
2022/03/05 05:37:16;;;;;;;43.43;21.80;;;0.10;1.00;0.70;100991.00;;;;4998923;28;20500;-77
2022/03/05 05:39:45;;;;;;;46.20;23.73;;;0.10;1.00;0.60;100969.00;;;;4993747;28;20453;-78
2022/03/05 05:42:14;;;;;;;43.87;21.70;;;0.10;1.00;0.60;100986.00;;;;5011315;28;20546;-80
2022/03/05 05:44:44;;;;;;;43.57;21.50;;;0.10;1.00;0.60;101005.00;;;;4988255;28;20591;-77
2022/03/05 05:47:13;;;;;;;40.17;21.03;;;0.10;1.00;0.50;101005.00;;;;4993933;28;20486;-78
2022/03/05 05:49:41;;;;;;;40.97;21.50;;;0.00;1.00;0.60;100972.00;;;;5014992;28;20454;-76
2022/03/05 05:52:11;;;;;;;41.40;21.97;;;0.00;1.00;0.80;66421.00;;;;4999804;28;20465;-78
2022/03/05 05:54:42;;;;;;;49.80;22.90;;;0.50;1.00;0.80;66397.00;;;;5011492;28;20593;-80
2022/03/05 05:57:11;;;;;;;41.40;22.50;;;0.50;1.00;0.80;100996.00;;;;5012305;28;21533;-79
2022/03/05 05:59:39;;;;;;;49.30;23.77;;;0.10;1.00;0.80;66416.00;;;;4998977;28;20465;-79
2022/03/05 06:02:10;;;;;;;43.43;22.13;;;0.20;1.00;0.80;101014.00;;;;4998916;28;20472;-78
2022/03/05 06:04:40;;;;;;;40.60;23.07;;;0.20;1.00;0.80;101002.00;;;;5016070;28;20561;-78
2022/03/05 06:07:08;;;;;;;42.57;21.40;;;0.20;1.00;0.70;101002.00;;;;5000275;28;20561;-79
2022/03/05 06:09:36;;;;;;;44.60;22.73;;;0.30;1.00;0.80;101020.00;;;;5002453;28;20461;-80
2022/03/05 06:12:06;;;;;;;41.20;21.93;;;0.20;1.00;217.30;157047.00;;;;5019666;28;20462;-79
2022/03/05 06:14:35;;;;;;;41.57;21.93;;;0.30;1.00;0.90;101021.00;;;;5024469;28;20501;-80
2022/03/05 06:17:04;;;;;;;46.13;25.40;;;0.30;1.00;0.70;101006.00;;;;5015931;28;21125;-78
2022/03/05 06:19:34;;;;;;;49.13;25.03;;;0.20;1.00;0.70;101037.00;;;;5008495;28;20465;-81
2022/03/05 06:22:03;;;;;;;42.03;22.67;;;0.10;1.00;0.80;101026.00;;;;5028985;28;20446;-80
2022/03/05 06:24:31;;;;;;;41.77;24.13;;;0.20;1.00;0.80;101025.00;;;;5029840;28;20501;-77
2022/03/05 06:27:00;;;;;;;49.33;24.90;;;0.30;1.00;0.90;101033.00;;;;5014075;28;20462;-80
2022/03/05 06:29:28;;;;;;;46.77;24.17;;;0.30;1.00;1.10;101039.00;;;;5012953;28;20972;-79
2022/03/05 06:32:16;;;;;;;44.10;23.57;;;0.50;1.00;1.10;101040.00;;;;5004992;28;20486;-79
2022/03/05 06:35:15;;;;;;;39.77;22.10;;;0.50;1.00;1.20;101032.00;;;;5003102;28;20776;-80
2022/03/05 06:37:44;;;;;;;46.43;24.07;;;0.60;1.00;1.20;101026.00;;;;4999404;28;21032;-79
2022/03/05 06:40:13;;;;;;;43.07;24.30;;;0.60;1.00;1.30;101031.00;;;;5001880;28;20958;-79
2022/03/05 06:42:42;;;;;;;48.77;24.10;;;0.70;1.00;1.50;101013.00;;;;5025198;28;20553;-79
2022/03/05 06:45:11;;;;;;;41.60;23.63;;;0.80;1.00;1.70;101021.00;;;;5010215;28;20474;-80
2022/03/05 06:47:39;;;;;;;43.90;24.80;;;1.00;1.00;1.90;101032.00;;;;5004220;28;20455;-79
2022/03/05 06:50:10;;;;;;;46.40;24.40;;;1.10;1.00;2.00;101030.00;;;;5012540;28;20556;-79
2022/03/05 06:52:40;;;;;;;43.77;23.80;;;1.20;1.00;2.10;101040.00;;;;5025672;28;20450;-80
2022/03/05 06:55:13;;;;;;;43.07;22.90;;;1.30;1.00;2.10;101035.00;;;;5010636;28;20486;-80
2022/03/05 06:57:42;;;;;;;41.77;23.17;;;1.40;1.00;2.10;101008.00;;;;5012646;28;20509;-80
2022/03/05 07:00:13;;;;;;;40.10;22.77;;;1.80;1.00;2.20;101042.00;;;;5011879;28;20454;-81
2022/03/05 07:02:42;;;;;;;39.10;22.00;;;1.60;1.00;2.10;101039.00;;;;5012141;28;20467;-80
2022/03/05 07:05:12;;;;;;;36.83;21.80;;;1.60;1.00;2.40;101030.00;;;;5010698;28;20500;-79
2022/03/05 07:07:42;;;;;;;42.07;22.17;;;1.70;1.00;2.40;101029.00;;;;5006570;28;20465;-79
2022/03/05 07:10:11;;;;;;;38.20;22.63;;;1.80;1.00;2.40;101022.00;;;;5000921;28;20449;-79
2022/03/05 07:12:40;;;;;;;40.00;21.93;;;1.80;1.00;2.50;101033.00;;;;5000088;28;20445;-79
2022/03/05 07:15:10;;;;;;;40.73;21.90;;;1.90;1.00;2.70;66847.00;;;;5006476;28;21371;-80
2022/03/05 07:17:38;;;;;;;36.40;21.30;;;2.00;1.00;2.80;101056.00;;;;5006518;28;20505;-80
2022/03/05 07:20:08;;;;;;;36.30;19.70;;;2.10;1.00;2.80;66858.00;;;;5022188;28;20530;-80
2022/03/05 07:22:36;;;;;;;37.00;21.73;;;2.20;1.00;3.00;101046.00;;;;5024241;28;20498;-79
2022/03/05 07:25:08;;;;;;;40.50;22.17;;;2.30;1.00;3.00;101062.00;;;;5003083;28;20482;-79
2022/03/05 07:27:37;;;;;;;38.17;22.27;;;2.40;1.00;3.00;101058.00;;;;5006747;28;20456;-80
2022/03/05 07:30:08;;;;;;;36.47;20.60;;;2.40;1.00;3.00;101069.00;;;;4999745;28;20850;-79
2022/03/05 07:32:37;;;;;;;38.27;20.67;;;2.40;1.00;3.20;101055.00;;;;5005142;28;20729;-79
2022/03/05 07:35:07;;;;;;;36.50;21.03;;;2.50;1.00;3.20;101044.00;;;;5016756;28;20475;-80
2022/03/05 07:37:37;;;;;;;33.50;20.50;;;2.60;1.00;3.40;101063.00;;;;5007118;28;20460;-80
2022/03/05 07:40:09;;;;;;;35.83;20.53;;;2.70;1.00;3.40;101060.00;;;;5023537;28;21535;-79
2022/03/05 07:42:38;;;;;;;32.97;19.93;;;2.80;1.00;3.50;101063.00;;;;5007133;28;20489;-80
2022/03/05 07:45:08;;;;;;;32.67;21.37;;;2.90;1.00;3.60;101076.00;;;;5002864;28;20528;-79
2022/03/05 07:47:37;;;;;;;34.73;22.13;;;3.00;1.00;3.70;101061.00;;;;5007413;28;20458;-79
2022/03/05 07:50:08;;;;;;;31.87;20.10;;;3.00;1.00;3.60;101071.00;;;;5002550;28;20461;-79
2022/03/05 07:52:36;;;;;;;34.53;20.90;;;3.10;1.00;3.70;101050.00;;;;5003458;28;20496;-79
2022/03/05 07:55:07;;;;;;;35.57;19.67;;;3.10;1.00;3.90;101065.00;;;;5010115;28;20470;-79
2022/03/05 07:57:36;;;;;;;32.40;20.77;;;3.20;1.00;3.70;101052.00;;;;5014960;28;20498;-80
2022/03/05 08:00:06;;;;;;;36.70;19.90;;;3.40;1.00;3.80;101077.00;;;;5021010;28;20477;-79
2022/03/05 08:02:51;;;;;;;28.97;19.00;;;3.30;1.00;4.00;101093.00;;;;5016252;28;20462;-80
2022/03/05 08:05:21;;;;;;;33.97;19.93;;;3.40;1.00;3.90;101062.00;;;;5011452;28;20470;-80
2022/03/05 08:07:49;;;;;;;30.07;19.53;;;3.40;1.00;4.00;101075.00;;;;5004719;28;20469;-79
2022/03/05 08:10:19;;;;;;;28.77;19.50;;;3.40;1.00;3.90;67129.00;;;;5009813;28;20461;-80
2022/03/05 08:12:48;;;;;;;30.67;19.40;;;3.20;1.00;3.90;67115.00;;;;5007652;28;20453;-80
2022/03/05 08:15:16;;;;;;;29.43;19.07;;;3.40;1.00;4.10;101078.00;;;;4999330;28;20591;-80
2022/03/05 08:17:54;;;;;;;30.00;19.40;;;3.60;1.00;4.20;101075.00;;;;5018218;28;20486;-79
2022/03/05 08:20:24;;;;;;;30.63;19.90;;;3.60;1.00;4.20;101087.00;;;;5004873;28;20455;-78
2022/03/05 08:22:55;;;;;;;26.70;18.33;;;3.70;1.00;4.10;101076.00;;;;5001924;28;20490;-79
2022/03/05 08:25:25;;;;;;;35.83;21.70;;;3.70;1.00;4.20;101087.00;;;;5002311;28;20466;-78
2022/03/05 08:27:54;;;;;;;34.67;20.83;;;4.20;1.00;4.40;101030.00;;;;5021245;28;20486;-77
2022/03/05 08:30:22;;;;;;;34.83;19.30;;;4.20;1.00;4.30;101070.00;;;;5003729;28;20476;-78
2022/03/05 08:32:51;;;;;;;28.80;19.00;;;4.20;1.00;4.50;101038.00;;;;4998938;28;20554;-77
2022/03/05 08:35:21;;;;;;;31.43;21.00;;;3.90;1.00;4.50;101055.00;;;;5004744;28;20485;-79
2022/03/05 08:37:50;;;;;;;32.73;20.73;;;4.00;1.00;4.60;101079.00;;;;5018676;28;20521;-77
2022/03/05 08:40:21;;;;;;;30.43;21.37;;;4.10;1.00;4.70;101077.00;;;;5015216;28;20535;-78
2022/03/05 08:42:51;;;;;;;26.07;17.53;;;4.20;1.00;4.70;101084.00;;;;5003655;28;20442;-77
2022/03/05 08:45:19;;;;;;;29.20;19.93;;;4.20;1.00;4.60;101070.00;;;;5017739;28;20473;-78
2022/03/05 08:47:52;;;;;;;32.93;17.93;;;4.20;1.00;4.70;101096.00;;;;5016280;28;20439;-77
2022/03/05 08:50:23;;;;;;;30.50;20.90;;;4.20;1.00;4.80;101089.00;;;;5017312;28;20472;-77
2022/03/05 08:52:51;;;;;;;26.27;18.23;;;4.30;1.00;5.00;101089.00;;;;5013257;28;20450;-79
2022/03/05 08:55:19;;;;;;;28.43;20.00;;;4.40;1.00;4.90;101080.00;;;;5010317;28;20461;-80
2022/03/05 08:57:50;;;;;;;27.70;20.20;;;4.50;1.00;52.70;158726.00;;;;5034814;28;20485;-75
2022/03/05 09:00:19;;;;;;;26.77;18.80;;;4.50;1.00;5.20;101084.00;;;;5016475;28;20486;-80
2022/03/05 09:02:48;;;;;;;28.73;18.70;;;4.60;1.00;5.30;101094.00;;;;5028486;28;20533;-77
2022/03/05 09:05:17;;;;;;;27.17;18.40;;;4.80;1.00;5.30;101073.00;;;;5025697;28;20502;-79
2022/03/05 09:07:46;;;;;;;37.47;18.90;;;4.90;1.00;5.20;101087.00;;;;5010307;28;21479;-79
2022/03/05 09:10:14;;;;;;;24.60;18.50;;;4.50;1.00;5.40;101093.00;;;;5015258;28;20505;-80
2022/03/05 09:12:43;;;;;;;28.73;19.30;;;4.90;1.00;5.60;101067.00;;;;5015396;28;20549;-81
2022/03/05 09:15:13;;;;;;;24.30;17.70;;;5.10;1.00;5.50;101070.00;;;;4998403;28;21287;-78
2022/03/05 09:17:42;;;;;;;23.47;18.13;;;5.00;1.00;5.60;101087.00;;;;4992635;28;20481;-81
2022/03/05 09:20:12;;;;;;;24.63;18.57;;;5.10;1.00;5.70;101089.00;;;;5011731;28;20458;-79
2022/03/05 09:22:40;;;;;;;29.27;21.10;;;5.20;1.00;5.80;101083.00;;;;4998572;28;20498;-80
2022/03/05 09:25:10;;;;;;;25.50;18.30;;;5.70;1.00;5.80;101085.00;;;;4999833;28;20481;-78
2022/03/05 09:27:39;;;;;;;28.13;18.53;;;5.40;1.00;5.90;101082.00;;;;4995808;28;20478;-79
2022/03/05 09:30:12;;;;;;;23.33;17.30;;;5.40;1.00;5.80;101074.00;;;;5000689;28;20546;-80
2022/03/05 09:32:41;;;;;;;28.30;19.13;;;5.40;1.00;5.80;101077.00;;;;5015056;28;20439;-80
2022/03/05 09:35:10;;;;;;;27.10;18.80;;;5.50;1.00;5.70;101071.00;;;;5023103;28;20494;-81
2022/03/05 09:37:38;;;;;;;24.90;18.67;;;5.30;1.00;5.90;101076.00;;;;5019945;28;20479;-79
2022/03/05 09:40:12;;;;;;;24.80;18.03;;;5.40;1.00;6.20;101068.00;;;;5027160;28;20468;-80
2022/03/05 09:42:43;;;;;;;28.00;18.87;;;5.30;1.00;6.30;101071.00;;;;5039548;28;20457;-80
2022/03/05 09:45:15;;;;;;;29.57;19.23;;;5.90;1.00;6.30;101054.00;;;;5016196;28;20482;-78
2022/03/05 09:47:45;;;;;;;29.17;19.93;;;5.90;1.00;6.30;101077.00;;;;5012669;28;20470;-79
2022/03/05 09:50:14;;;;;;;29.70;20.23;;;5.90;1.00;6.30;101080.00;;;;5006989;28;20449;-79
2022/03/05 09:52:43;;;;;;;26.40;19.60;;;5.90;1.00;6.40;101072.00;;;;4999161;28;20470;-80
2022/03/05 09:55:11;;;;;;;28.33;21.20;;;6.00;1.00;6.40;101070.00;;;;5003926;28;20848;-78
2022/03/05 09:57:40;;;;;;;26.97;19.33;;;6.00;1.00;6.50;101030.00;;;;5012230;28;20467;-79
2022/03/05 10:00:10;;;;;;;27.00;19.43;;;6.10;1.00;6.50;101057.00;;;;5003829;28;20513;-79
2022/03/05 10:02:39;;;;;;;30.93;19.47;;;6.10;1.00;6.60;101063.00;;;;5022311;28;20911;-79
2022/03/05 10:05:17;;;;;;;25.33;19.47;;;6.20;1.00;6.60;101032.00;;;;5003626;28;20477;-79
2022/03/05 10:08:09;;;;;;;24.50;17.93;;;6.20;1.00;6.80;101066.00;;;;5000960;28;20512;-79
2022/03/05 10:10:48;;;;;;;25.83;18.80;;;6.40;1.00;6.90;101052.00;;;;5014743;28;20461;-81
2022/03/05 10:13:25;;;;;;;25.70;19.20;;;6.50;1.00;7.00;101037.00;;;;5014420;28;20537;-81
2022/03/05 10:15:56;;;;;;;26.50;19.53;;;6.60;1.00;7.20;101050.00;;;;5005040;28;20478;-78
2022/03/05 10:18:31;;;;;;;24.67;18.30;;;6.80;1.00;7.30;101054.00;;;;5005240;28;20541;-79
2022/03/05 10:21:01;;;;;;;25.27;17.27;;;7.30;1.00;7.10;101053.00;;;;5011581;28;20954;-81
2022/03/05 10:23:36;;;;;;;24.87;18.27;;;6.90;1.00;7.30;101039.00;;;;4998513;28;20463;-80
2022/03/05 10:26:07;;;;;;;30.23;17.90;;;6.90;1.00;7.20;101042.00;;;;5010779;28;20469;-80
2022/03/05 10:28:38;;;;;;;27.97;18.63;;;6.90;1.00;7.30;101048.00;;;;5001033;28;20482;-80
2022/03/05 10:31:09;;;;;;;25.47;18.90;;;7.00;1.00;7.50;101045.00;;;;4999194;28;20519;-79
2022/03/05 10:33:42;;;;;;;25.90;18.83;;;7.00;1.00;7.50;101045.00;;;;5012389;28;20442;-81
2022/03/05 10:36:19;;;;;;;24.20;18.50;;;7.10;1.00;7.50;101037.00;;;;5017599;28;20498;-80
2022/03/05 10:38:51;;;;;;;25.90;19.80;;;7.10;1.00;7.60;101013.00;;;;5017267;28;20462;-80
2022/03/05 10:41:23;;;;;;;25.67;17.83;;;7.30;1.00;7.70;101033.00;;;;5016359;28;20573;-80
2022/03/05 10:44:07;;;;;;;24.27;16.70;;;7.30;1.00;7.70;101031.00;;;;5004712;28;20537;-79
2022/03/05 10:46:43;;;;;;;25.40;18.20;;;7.30;1.00;7.80;101043.00;;;;5016704;28;20453;-79
2022/03/05 10:49:18;;;;;;;23.40;17.53;;;7.80;1.00;7.80;101016.00;;;;5004169;28;20445;-79
2022/03/05 10:51:48;;;;;;;24.10;18.40;;;7.50;1.00;7.90;101000.00;;;;5010683;28;20541;-80
2022/03/05 10:54:27;;;;;;;21.03;16.60;;;7.60;1.00;8.00;101039.00;;;;5009406;28;20879;-81
2022/03/05 10:56:57;;;;;;;21.73;16.90;;;7.70;1.00;8.20;101021.00;;;;5006904;28;20469;-78
2022/03/05 10:59:27;;;;;;;22.33;16.00;;;7.80;1.00;8.20;101013.00;;;;4999765;28;20494;-78
2022/03/05 11:01:56;;;;;;;19.90;15.33;;;7.80;1.00;8.40;101018.00;;;;5007322;28;20464;-78
2022/03/05 11:04:27;;;;;;;20.23;16.07;;;8.30;1.00;8.50;101016.00;;;;5018961;28;20526;-80
2022/03/05 11:06:57;;;;;;;19.83;14.70;;;8.20;1.00;8.70;101036.00;;;;5018770;28;20513;-81
2022/03/05 11:09:27;;;;;;;18.80;14.93;;;8.40;1.00;8.70;101021.00;;;;5028380;28;20553;-79